首页
METAR-TAF:

METAR-TAF

机场 :

石油平台

D15-fa-1, 荷兰

纬度: 54-19-32N, 经度: 2-56-09E, 海拔: 36米

当前天气观测

该预报发布于38分钟前的08:55 UTC
风速23节,风向西北
温度 7°C
湿度 66%
气压 1018 hPa
能见度10公里或以上
毛毛雨

METAR: EHDV 180855Z AUTO 31023KT 9999 DZ FEW014/// SCT031/// 07/01 Q1018

时间: 10:33 (09:33 UTC)


TAF: 丢失

超过4000个机场的气象观测和天气预报(METAR&TAF报告)。

可查询的气象台以黄色和红色小点在地图上表示。

将鼠标移到小点上方,可查看气象台名称。

然后点击查看天气观测和预报。

如需切换地图:点击带黑十字的绿色按钮放大地图;点击带横线的绿色按钮缩小地图;或者点击绿色箭头查看邻近地区的地图。


METAR-TAF: